createdAt,value
2019-03-20T00:02:17.524Z,29.95
2019-03-20T00:04:49.873Z,30.50
2019-03-20T00:07:20.534Z,31.37
2019-03-20T00:09:51.356Z,32.63
2019-03-20T00:12:22.822Z,32.48
2019-03-20T00:14:53.640Z,33.10
2019-03-20T00:17:24.372Z,31.82
2019-03-20T00:19:56.167Z,30.95
2019-03-20T00:22:26.761Z,33.05
2019-03-20T00:24:57.284Z,31.75
2019-03-20T00:27:29.551Z,30.48
2019-03-20T00:30:01.831Z,32.28
2019-03-20T00:32:32.144Z,30.60
2019-03-20T00:35:03.628Z,30.75
2019-03-20T00:37:33.917Z,32.20
2019-03-20T00:40:07.078Z,29.25
2019-03-20T00:42:37.329Z,22.13
2019-03-20T00:45:10.578Z,29.05
2019-03-20T00:47:40.950Z,29.25
2019-03-20T00:50:15.602Z,29.63
2019-03-20T00:52:46.300Z,28.45
2019-03-20T00:55:17.588Z,29.37
2019-03-20T00:57:48.481Z,29.25
2019-03-20T01:00:25.527Z,30.68
2019-03-20T01:02:56.190Z,30.88
2019-03-20T01:05:27.033Z,29.98
2019-03-20T01:07:59.287Z,31.85
2019-03-20T01:10:29.957Z,30.75
2019-03-20T01:13:00.437Z,31.65
2019-03-20T01:15:31.803Z,32.42
2019-03-20T01:20:42.177Z,32.90
2019-03-20T01:23:13.418Z,35.35
2019-03-20T01:25:43.741Z,35.35
2019-03-20T01:28:14.471Z,37.28
2019-03-20T01:30:45.112Z,37.95
2019-03-20T01:33:15.576Z,36.58
2019-03-20T01:35:47.861Z,37.20
2019-03-20T01:38:18.193Z,35.35
2019-03-20T01:40:49.750Z,33.60
2019-03-20T01:43:22.147Z,27.70
2019-03-20T01:45:53.090Z,35.70
2019-03-20T01:48:23.820Z,37.55
2019-03-20T01:50:57.107Z,34.70
2019-03-20T01:53:29.278Z,34.50
2019-03-20T01:56:01.599Z,37.15
2019-03-20T01:58:32.894Z,36.23
2019-03-20T02:01:03.313Z,38.67
2019-03-20T02:03:33.950Z,38.58
2019-03-20T02:06:04.475Z,37.53
2019-03-20T02:08:35.203Z,37.03
2019-03-20T02:11:05.834Z,38.25
2019-03-20T02:13:36.771Z,38.67
2019-03-20T02:16:07.404Z,38.83
2019-03-20T02:18:40.160Z,37.95
2019-03-20T02:21:10.716Z,37.73
2019-03-20T02:23:41.342Z,37.93
2019-03-20T02:26:12.076Z,40.38
2019-03-20T02:28:44.656Z,38.98
2019-03-20T02:31:15.380Z,43.78
2019-03-20T02:33:46.119Z,39.18
2019-03-20T02:36:16.851Z,42.85
2019-03-20T02:38:47.579Z,41.88
2019-03-20T02:41:18.316Z,42.67
2019-03-20T02:43:51.403Z,45.90
2019-03-20T02:46:22.649Z,40.60
2019-03-20T02:48:55.094Z,41.48
2019-03-20T02:51:26.374Z,41.33
2019-03-20T02:53:56.954Z,37.98
2019-03-20T02:56:29.261Z,38.60
2019-03-20T02:58:59.802Z,38.55
2019-03-20T03:01:30.534Z,40.63
2019-03-20T03:04:01.049Z,40.75
2019-03-20T03:06:31.682Z,39.65
2019-03-20T03:09:02.419Z,37.38
2019-03-20T03:11:33.046Z,41.40
2019-03-20T03:14:03.988Z,39.08
2019-03-20T03:16:37.194Z,39.60
2019-03-20T03:19:09.033Z,43.75
2019-03-20T03:21:39.631Z,42.25
2019-03-20T03:24:10.286Z,39.38
2019-03-20T03:26:41.127Z,37.00
2019-03-20T03:29:12.195Z,37.08
2019-03-20T03:31:43.511Z,35.68
2019-03-20T03:34:15.037Z,34.18
2019-03-20T03:36:46.943Z,33.02
2019-03-20T03:39:17.246Z,31.87
2019-03-20T03:41:47.923Z,32.78
2019-03-20T03:44:18.465Z,32.25
2019-03-20T03:46:49.339Z,32.63
2019-03-20T03:49:20.063Z,32.53
2019-03-20T03:51:51.220Z,31.90
2019-03-20T03:54:21.637Z,31.15
2019-03-20T03:56:54.712Z,31.73
2019-03-20T03:59:25.516Z,31.42
2019-03-20T04:01:56.301Z,33.42
2019-03-20T04:04:27.849Z,33.15
2019-03-20T04:06:58.208Z,31.95
2019-03-20T04:09:28.908Z,32.45
2019-03-20T04:12:01.373Z,32.88
2019-03-20T04:14:31.942Z,32.05
2019-03-20T04:17:02.593Z,32.40
2019-03-20T04:19:36.875Z,31.23
2019-03-20T04:22:07.381Z,23.35
2019-03-20T04:24:38.012Z,31.87
2019-03-20T04:27:08.946Z,33.30
2019-03-20T04:29:39.594Z,36.17
2019-03-20T04:32:10.412Z,39.20
2019-03-20T04:34:41.463Z,38.30
2019-03-20T04:37:13.802Z,37.83
2019-03-20T04:39:44.353Z,38.05
2019-03-20T04:42:15.035Z,35.08
2019-03-20T04:44:46.532Z,35.80
2019-03-20T04:47:17.365Z,34.43
2019-03-20T04:49:50.729Z,36.20
2019-03-20T04:52:21.902Z,36.03
2019-03-20T04:54:53.660Z,35.23
2019-03-20T04:57:26.132Z,36.33
2019-03-20T04:59:57.477Z,39.20
2019-03-20T05:02:28.109Z,38.25
2019-03-20T05:04:59.455Z,41.42
2019-03-20T05:07:30.406Z,43.48
2019-03-20T05:10:01.026Z,42.85
2019-03-20T05:12:31.757Z,45.23
2019-03-20T05:15:02.695Z,45.12
2019-03-20T05:17:33.536Z,43.90
2019-03-20T05:20:06.166Z,42.67
2019-03-20T05:22:36.634Z,42.88
2019-03-20T05:25:07.478Z,43.05
2019-03-20T05:27:38.715Z,40.88
2019-03-20T05:30:12.150Z,40.90
2019-03-20T05:32:43.359Z,32.30
2019-03-20T05:35:13.980Z,41.95
2019-03-20T05:37:44.611Z,41.65
2019-03-20T05:40:19.232Z,39.50
2019-03-20T05:42:50.777Z,39.42
2019-03-20T05:45:21.578Z,40.65
2019-03-20T05:47:55.020Z,42.10
2019-03-20T05:50:25.440Z,41.63
2019-03-20T05:52:56.004Z,41.55
2019-03-20T05:55:26.600Z,41.25
2019-03-20T05:57:57.354Z,40.60
2019-03-20T06:00:29.702Z,41.00
2019-03-20T06:03:00.249Z,41.92
2019-03-20T06:05:30.861Z,41.20
2019-03-20T06:08:01.489Z,40.17
2019-03-20T06:10:32.207Z,40.30
2019-03-20T06:13:02.852Z,38.00
2019-03-20T06:15:34.043Z,38.48
2019-03-20T06:18:04.827Z,41.15
2019-03-20T06:20:35.363Z,40.90
2019-03-20T06:23:06.603Z,40.58
2019-03-20T06:25:36.924Z,40.28
2019-03-20T06:28:08.273Z,39.95
2019-03-20T06:30:39.640Z,38.63
2019-03-20T06:33:11.378Z,42.60
2019-03-20T06:35:43.134Z,38.02
2019-03-20T06:38:14.273Z,40.40
2019-03-20T06:40:45.123Z,39.80
2019-03-20T06:43:15.814Z,39.95
2019-03-20T06:45:47.088Z,37.85
2019-03-20T06:48:17.419Z,38.33
2019-03-20T06:50:48.275Z,37.15
2019-03-20T06:53:18.992Z,38.33
2019-03-20T06:55:49.811Z,38.60
2019-03-20T06:58:20.894Z,39.35
2019-03-20T07:01:03.773Z,36.80
2019-03-20T07:03:40.543Z,37.15
2019-03-20T07:06:23.672Z,35.92
2019-03-20T07:09:04.872Z,37.53
2019-03-20T07:11:39.475Z,35.75
2019-03-20T07:14:09.823Z,37.42
2019-03-20T07:16:40.522Z,37.83
2019-03-20T07:19:11.255Z,35.63
2019-03-20T07:21:41.694Z,39.42
2019-03-20T07:24:15.197Z,38.25
2019-03-20T07:26:45.712Z,37.38
2019-03-20T07:29:16.955Z,36.17
2019-03-20T07:31:49.216Z,37.80
2019-03-20T07:34:21.769Z,37.65
2019-03-20T07:36:53.044Z,39.95
2019-03-20T07:39:23.671Z,38.28
2019-03-20T07:41:54.834Z,37.80
2019-03-20T07:44:25.248Z,36.08
2019-03-20T07:46:58.147Z,27.65
2019-03-20T07:49:31.298Z,37.60
2019-03-20T07:52:02.545Z,40.25
2019-03-20T07:54:33.295Z,39.35
2019-03-20T07:57:04.022Z,38.05
2019-03-20T07:59:36.089Z,37.73
2019-03-20T08:02:06.600Z,36.30
2019-03-20T08:04:37.936Z,35.05
2019-03-20T08:07:10.205Z,36.50
2019-03-20T08:09:40.630Z,34.25
2019-03-20T08:12:12.915Z,35.60
2019-03-20T08:14:45.026Z,33.58
2019-03-20T08:17:15.826Z,33.18
2019-03-20T08:19:46.909Z,35.17
2019-03-20T08:22:18.112Z,33.85
2019-03-20T08:24:48.839Z,32.98
2019-03-20T08:27:19.778Z,32.93
2019-03-20T08:29:50.610Z,35.25
2019-03-20T08:32:21.445Z,35.55
2019-03-20T08:34:52.191Z,37.85
2019-03-20T08:37:23.424Z,40.05
2019-03-20T08:39:53.756Z,40.67
2019-03-20T08:42:24.555Z,37.60
2019-03-20T08:44:58.061Z,36.55
2019-03-20T08:47:28.733Z,35.13
2019-03-20T08:50:00.338Z,35.33
2019-03-20T08:52:30.792Z,67.60
2019-03-20T08:55:01.429Z,44.30
2019-03-20T08:57:32.665Z,56.55
2019-03-20T09:00:02.878Z,37.05
2019-03-20T09:02:34.121Z,35.28
2019-03-20T09:05:08.314Z,62.53
2019-03-20T09:07:47.167Z,44.05
2019-03-20T09:10:18.381Z,41.83
2019-03-20T09:12:50.799Z,34.65
2019-03-20T09:15:21.590Z,31.77
2019-03-20T09:17:53.498Z,27.45
2019-03-20T09:20:25.123Z,27.65
2019-03-20T09:22:55.862Z,31.35
2019-03-20T09:25:30.119Z,28.23
2019-03-20T09:28:00.609Z,27.58
2019-03-20T09:30:33.279Z,29.02
2019-03-20T09:33:03.646Z,32.25
2019-03-20T09:35:34.964Z,26.37
2019-03-20T09:38:05.479Z,26.50
2019-03-20T09:40:39.169Z,27.22
2019-03-20T09:43:11.156Z,27.07
2019-03-20T09:45:43.211Z,27.40
2019-03-20T09:48:14.052Z,34.50
2019-03-20T09:50:44.776Z,28.57
2019-03-20T09:53:15.507Z,38.23
2019-03-20T09:55:48.187Z,27.87
2019-03-20T09:58:19.941Z,34.13
2019-03-20T10:00:50.776Z,27.42
2019-03-20T10:03:21.923Z,25.15
2019-03-20T10:05:56.442Z,28.38
2019-03-20T10:08:27.273Z,28.07
2019-03-20T10:10:58.216Z,26.20
2019-03-20T10:13:29.969Z,26.52
2019-03-20T10:16:00.611Z,27.48
2019-03-20T10:18:31.515Z,25.95
2019-03-20T10:21:02.273Z,28.67
2019-03-20T10:23:33.008Z,28.67
2019-03-20T10:26:03.899Z,27.85
2019-03-20T10:28:34.682Z,30.43
2019-03-20T10:31:05.608Z,25.77
2019-03-20T10:33:36.363Z,25.80
2019-03-20T10:36:06.972Z,28.10
2019-03-20T10:38:38.671Z,25.35
2019-03-20T10:41:10.686Z,25.12
2019-03-20T10:43:42.140Z,24.02
2019-03-20T10:46:13.597Z,24.63
2019-03-20T10:48:44.735Z,23.05
2019-03-20T10:51:15.160Z,21.90
2019-03-20T10:53:47.538Z,24.63
2019-03-20T10:56:18.161Z,25.72
2019-03-20T10:58:48.813Z,22.07
2019-03-20T11:01:19.423Z,22.00
2019-03-20T11:03:51.084Z,30.75
2019-03-20T11:06:22.527Z,23.02
2019-03-20T11:08:52.878Z,22.27
2019-03-20T11:11:27.316Z,23.05
2019-03-20T11:13:56.360Z,21.52
2019-03-20T11:16:27.109Z,22.20
2019-03-20T11:18:58.728Z,21.23
2019-03-20T11:21:29.280Z,21.70
2019-03-20T11:24:04.314Z,19.75
2019-03-20T11:26:35.661Z,29.30
2019-03-20T11:29:06.194Z,19.37
2019-03-20T11:31:37.775Z,19.42
2019-03-20T11:34:09.700Z,23.47
2019-03-20T11:36:40.231Z,19.23
2019-03-20T11:39:12.287Z,19.62
2019-03-20T11:41:43.046Z,19.90
2019-03-20T11:44:13.755Z,20.68
2019-03-20T11:46:45.738Z,22.90
2019-03-20T11:49:16.993Z,23.73
2019-03-20T11:51:49.026Z,24.25
2019-03-20T11:54:19.653Z,24.55
2019-03-20T11:56:50.285Z,26.52
2019-03-20T11:59:21.839Z,26.80
2019-03-20T12:01:54.206Z,25.45
2019-03-20T12:04:24.939Z,26.33
2019-03-20T12:06:55.455Z,26.75
2019-03-20T12:09:26.639Z,25.65
2019-03-20T12:11:57.447Z,28.87
2019-03-20T12:14:29.004Z,27.25
2019-03-20T12:16:59.934Z,29.65
2019-03-20T12:19:31.184Z,36.58
2019-03-20T12:22:01.510Z,33.65
2019-03-20T12:24:32.262Z,31.55
2019-03-20T12:27:14.184Z,31.35
2019-03-20T12:29:36.568Z,35.33
2019-03-20T12:32:08.526Z,32.23
2019-03-20T12:34:39.262Z,35.90
2019-03-20T12:37:10.742Z,36.45
2019-03-20T12:39:52.641Z,37.28
2019-03-20T12:42:13.627Z,36.05
2019-03-20T12:44:44.345Z,41.70
2019-03-20T12:47:16.711Z,42.65
2019-03-20T12:49:48.113Z,43.52
2019-03-20T12:52:19.709Z,40.15
2019-03-20T12:54:50.035Z,45.45
2019-03-20T12:57:21.098Z,44.40
2019-03-20T12:59:51.410Z,47.38
2019-03-20T13:02:21.933Z,46.55
2019-03-20T13:04:53.481Z,40.90
2019-03-20T13:07:24.210Z,40.05
2019-03-20T13:10:03.169Z,42.53
2019-03-20T13:12:28.750Z,41.83
2019-03-20T13:14:59.378Z,40.83
2019-03-20T13:17:30.126Z,39.98
2019-03-20T13:20:00.844Z,38.92
2019-03-20T13:22:31.427Z,47.38
2019-03-20T13:25:03.630Z,41.37
2019-03-20T13:27:34.087Z,41.28
2019-03-20T13:30:20.409Z,39.58
2019-03-20T13:32:51.213Z,37.58
2019-03-20T13:35:24.283Z,36.65
2019-03-20T13:37:55.018Z,35.65
2019-03-20T13:40:26.567Z,40.60
2019-03-20T13:42:57.233Z,51.63
2019-03-20T13:45:28.854Z,36.42
2019-03-20T13:48:01.739Z,36.63
2019-03-20T13:50:32.883Z,41.45
2019-03-20T13:53:04.434Z,38.95
2019-03-20T13:55:35.375Z,39.10
2019-03-20T13:58:06.207Z,43.15
2019-03-20T14:00:37.147Z,37.15
2019-03-20T14:03:07.787Z,36.00
2019-03-20T14:05:40.758Z,35.80
2019-03-20T14:08:11.395Z,38.38
2019-03-20T14:10:50.202Z,53.00
2019-03-20T14:13:16.038Z,33.65
2019-03-20T14:15:47.541Z,32.17
2019-03-20T14:18:18.425Z,39.30
2019-03-20T14:20:49.147Z,30.15
2019-03-20T14:23:19.986Z,33.02
2019-03-20T14:25:50.792Z,34.45
2019-03-20T14:28:21.672Z,30.72
2019-03-20T14:30:53.539Z,31.60
2019-03-20T14:33:23.844Z,30.20
2019-03-20T14:35:54.626Z,31.27
2019-03-20T14:38:27.038Z,32.45
2019-03-20T14:40:58.133Z,35.23
2019-03-20T14:43:29.118Z,32.15
2019-03-20T14:45:59.753Z,31.15
2019-03-20T14:48:30.388Z,33.90
2019-03-20T14:51:01.117Z,32.80
2019-03-20T14:53:31.916Z,30.00
2019-03-20T14:56:02.681Z,49.08
2019-03-20T14:58:38.137Z,32.20
2019-03-20T15:01:08.970Z,35.98
2019-03-20T15:03:39.372Z,34.55
2019-03-20T15:06:10.010Z,34.25
2019-03-20T15:08:41.804Z,35.40
2019-03-20T15:11:13.344Z,34.73
2019-03-20T15:13:45.692Z,36.20
2019-03-20T15:16:17.448Z,32.87
2019-03-20T15:18:49.036Z,33.42
2019-03-20T15:21:19.496Z,34.70
2019-03-20T15:23:49.971Z,38.00
2019-03-20T15:26:20.798Z,38.08
2019-03-20T15:28:51.823Z,41.00
2019-03-20T15:31:23.982Z,37.20
2019-03-20T15:33:54.827Z,38.45
2019-03-20T15:36:25.464Z,37.50
2019-03-20T15:38:56.207Z,38.15
2019-03-20T15:41:26.937Z,38.23
2019-03-20T15:44:02.703Z,38.98
2019-03-20T15:46:31.376Z,40.75
2019-03-20T15:49:02.703Z,40.67
2019-03-20T15:51:33.235Z,43.48
2019-03-20T15:54:05.172Z,42.33
2019-03-20T15:56:36.139Z,42.90
2019-03-20T15:59:06.876Z,39.40
2019-03-20T16:01:37.494Z,40.67
2019-03-20T16:04:08.045Z,39.83
2019-03-20T16:06:38.651Z,37.60
2019-03-20T16:09:09.867Z,41.15
2019-03-20T16:11:40.632Z,41.20
2019-03-20T16:14:11.261Z,43.45
2019-03-20T16:16:43.434Z,43.13
2019-03-20T16:19:14.262Z,43.68
2019-03-20T16:21:45.205Z,41.30
2019-03-20T16:24:16.645Z,38.20
2019-03-20T16:26:47.892Z,42.78
2019-03-20T16:29:20.512Z,42.45
2019-03-20T16:31:51.306Z,41.68
2019-03-20T16:34:22.379Z,41.63
2019-03-20T16:36:53.217Z,41.70
2019-03-20T16:39:24.730Z,39.40
2019-03-20T16:41:55.473Z,40.30
2019-03-20T16:44:26.193Z,40.05
2019-03-20T16:46:58.773Z,39.03
2019-03-20T16:49:29.396Z,37.95
2019-03-20T16:52:01.360Z,36.48
2019-03-20T16:54:32.194Z,38.30
2019-03-20T16:57:02.724Z,38.15
2019-03-20T16:59:33.355Z,39.33
2019-03-20T17:02:04.815Z,40.15
2019-03-20T17:04:36.353Z,36.88
2019-03-20T17:07:07.596Z,37.55
2019-03-20T17:09:38.447Z,37.08
2019-03-20T17:12:11.085Z,36.50
2019-03-20T17:14:42.994Z,35.73
2019-03-20T17:17:14.211Z,36.53
2019-03-20T17:19:44.973Z,34.30
2019-03-20T17:22:16.279Z,34.15
2019-03-20T17:24:47.624Z,34.23
2019-03-20T17:27:18.168Z,33.73
2019-03-20T17:29:49.004Z,34.23
2019-03-20T17:32:20.246Z,37.23
2019-03-20T17:34:51.390Z,34.60
2019-03-20T17:37:22.693Z,34.10
2019-03-20T17:39:53.373Z,34.67
2019-03-20T17:42:25.530Z,34.98
2019-03-20T17:44:57.699Z,31.90
2019-03-20T17:47:27.978Z,32.03
2019-03-20T17:49:58.548Z,31.60
2019-03-20T17:52:29.280Z,33.70
2019-03-20T17:55:01.564Z,33.48
2019-03-20T17:57:31.977Z,33.90
2019-03-20T18:00:02.916Z,32.73
2019-03-20T18:02:33.647Z,31.90
2019-03-20T18:05:05.976Z,31.87
2019-03-20T18:07:36.657Z,31.23
2019-03-20T18:10:07.389Z,30.27
2019-03-20T18:12:38.108Z,30.17
2019-03-20T18:15:11.914Z,28.40
2019-03-20T18:17:42.184Z,28.55
2019-03-20T18:20:20.038Z,27.87
2019-03-20T18:22:51.196Z,26.90
2019-03-20T18:25:21.501Z,27.82
2019-03-20T18:27:53.770Z,26.85
2019-03-20T18:30:25.429Z,25.15
2019-03-20T18:32:55.851Z,25.15
2019-03-20T18:35:26.683Z,24.70
2019-03-20T18:37:57.528Z,25.17
2019-03-20T18:40:28.561Z,24.85
2019-03-20T18:43:00.111Z,27.65
2019-03-20T18:45:30.741Z,28.62
2019-03-20T18:48:01.271Z,30.72
2019-03-20T18:50:31.591Z,29.92
2019-03-20T18:53:02.220Z,28.32
2019-03-20T18:55:32.856Z,29.32
2019-03-20T18:58:03.864Z,30.00
2019-03-20T19:00:35.442Z,30.45
2019-03-20T19:03:23.574Z,30.23
2019-03-20T19:05:57.188Z,29.05
2019-03-20T19:08:28.327Z,29.63
2019-03-20T19:10:59.990Z,26.48
2019-03-20T19:13:31.315Z,28.00
2019-03-20T19:16:01.856Z,23.10
2019-03-20T19:18:32.499Z,21.48
2019-03-20T19:21:03.218Z,18.50
2019-03-20T19:23:34.060Z,17.95
2019-03-20T19:26:05.503Z,16.97
2019-03-20T19:28:36.441Z,16.75
2019-03-20T19:31:06.735Z,14.83
2019-03-20T19:33:37.287Z,16.60
2019-03-20T19:36:08.930Z,15.32
2019-03-20T19:38:39.264Z,15.32
2019-03-20T19:41:09.891Z,16.57
2019-03-20T19:43:40.730Z,16.73
2019-03-20T19:46:11.460Z,16.23
2019-03-20T19:48:42.099Z,16.35
2019-03-20T19:51:13.044Z,15.30
2019-03-20T19:53:43.624Z,15.93
2019-03-20T19:56:14.494Z,15.13
2019-03-20T19:58:45.330Z,15.95
2019-03-20T20:01:16.453Z,15.63
2019-03-20T20:03:47.201Z,21.60
2019-03-20T20:06:18.653Z,15.98
2019-03-20T20:08:49.118Z,16.17
2019-03-20T20:11:19.755Z,17.10
2019-03-20T20:13:50.302Z,15.58
2019-03-20T20:16:21.175Z,16.00
2019-03-20T20:18:51.908Z,19.90
2019-03-20T20:21:23.724Z,14.78
2019-03-20T20:23:54.397Z,13.70
2019-03-20T20:26:26.663Z,13.83
2019-03-20T20:28:56.972Z,13.43
2019-03-20T20:31:27.822Z,13.22
2019-03-20T20:33:58.250Z,13.60
2019-03-20T20:36:28.928Z,13.43
2019-03-20T20:38:59.511Z,13.50
2019-03-20T20:41:30.681Z,13.78
2019-03-20T20:44:01.278Z,12.63
2019-03-20T20:46:31.951Z,12.70
2019-03-20T20:49:02.847Z,12.55
2019-03-20T20:51:33.578Z,12.40
2019-03-20T20:54:04.527Z,14.10
2019-03-20T20:56:35.153Z,13.05
2019-03-20T20:59:06.287Z,13.20
2019-03-20T21:01:37.637Z,13.10
2019-03-20T21:04:08.981Z,14.25
2019-03-20T21:06:40.944Z,13.35
2019-03-20T21:09:13.829Z,13.53
2019-03-20T21:11:45.276Z,13.32
2019-03-20T21:14:15.598Z,13.22
2019-03-20T21:16:46.331Z,11.75
2019-03-20T21:19:33.695Z,12.40
2019-03-20T21:22:22.169Z,12.45
2019-03-20T21:24:53.346Z,11.95
2019-03-20T21:28:01.071Z,12.00
2019-03-20T21:30:48.813Z,11.75
2019-03-20T21:33:55.865Z,12.78
2019-03-20T21:36:44.030Z,12.20
2019-03-20T21:39:15.447Z,11.93
2019-03-20T21:41:58.264Z,12.10
2019-03-20T21:44:50.296Z,12.50
2019-03-20T21:47:35.931Z,12.88
2019-03-20T21:50:21.214Z,12.88
2019-03-20T21:52:52.393Z,13.38
2019-03-20T21:55:42.482Z,12.55
2019-03-20T21:58:19.153Z,13.43
2019-03-20T22:01:11.388Z,15.13
2019-03-20T22:03:44.007Z,13.72
2019-03-20T22:06:40.294Z,13.60
2019-03-20T22:09:13.045Z,14.40
2019-03-20T22:12:06.337Z,14.15
2019-03-20T22:14:37.070Z,14.65
2019-03-20T22:17:34.325Z,14.30
2019-03-20T22:20:26.150Z,15.23
2019-03-20T22:22:59.957Z,15.28
2019-03-20T22:25:55.875Z,14.38
2019-03-20T22:29:01.662Z,14.78
2019-03-20T22:31:35.624Z,15.50
2019-03-20T22:36:56.972Z,15.30
2019-03-20T22:40:02.459Z,14.55
2019-03-20T22:42:45.027Z,15.05
2019-03-20T22:45:30.914Z,14.55
2019-03-20T22:48:10.892Z,14.65
2019-03-20T22:50:46.205Z,14.20
2019-03-20T22:53:25.233Z,13.38
2019-03-20T22:56:18.597Z,11.85
2019-03-20T22:58:49.685Z,13.20
2019-03-20T23:01:25.796Z,13.00
2019-03-20T23:03:59.709Z,12.40
2019-03-20T23:06:31.368Z,11.55
2019-03-20T23:09:01.677Z,11.05
2019-03-20T23:11:32.511Z,12.65
2019-03-20T23:14:03.040Z,11.12
2019-03-20T23:16:33.775Z,12.05
2019-03-20T23:19:04.504Z,12.03
2019-03-20T23:21:34.960Z,11.80
2019-03-20T23:24:05.561Z,12.25
2019-03-20T23:26:36.297Z,11.78
2019-03-20T23:29:06.725Z,11.03
2019-03-20T23:31:37.248Z,12.00
2019-03-20T23:34:08.699Z,11.22
2019-03-20T23:36:39.537Z,11.80
2019-03-20T23:39:10.155Z,11.78
2019-03-20T23:41:42.390Z,12.68
2019-03-20T23:44:13.156Z,12.70
2019-03-20T23:46:43.994Z,12.65
2019-03-20T23:49:20.462Z,12.18
2019-03-20T23:51:50.886Z,12.10
2019-03-20T23:54:24.913Z,12.58
2019-03-20T23:56:56.192Z,12.80
2019-03-20T23:59:27.005Z,18.32
